Time;durP1;ratioP1;P1;durP2;ratioP2;P2;SDS_P1;SDS_P2;PMS_P1;PMS_P2;Temp;Humidity;BMP_temperature;BMP_pressure;BME280_temperature;BME280_humidity;BME280_pressure;Samples;Min_cycle;Max_cycle;Signal;HPM_P1;HPM_P2
2023/05/20 00:01:04;;;;;;;24.83;7.47;;;14.20;99.90;;;;;;5092678;28;20652;-58
2023/05/20 00:03:30;;;;;;;19.88;7.00;;;14.20;99.90;;;;;;5092608;28;20168;-58
2023/05/20 00:05:55;;;;;;;29.30;7.22;;;14.10;99.90;;;;;;5092562;28;20172;-59
2023/05/20 00:08:21;;;;;;;23.48;6.63;;;14.10;99.90;;;;;;5092470;28;20177;-59
2023/05/20 00:10:46;;;;;;;23.70;7.53;;;14.20;99.90;;;;;;5092575;28;20259;-58
2023/05/20 00:13:12;;;;;;;25.88;7.18;;;14.10;99.90;;;;;;5092400;28;20586;-59
2023/05/20 00:15:38;;;;;;;32.30;7.50;;;14.10;99.90;;;;;;5092474;28;20243;-59
2023/05/20 00:18:03;;;;;;;27.52;7.55;;;13.90;99.90;;;;;;5092372;28;20195;-58
2023/05/20 00:20:29;;;;;;;22.42;7.20;;;13.90;99.90;;;;;;5092241;28;20168;-58
2023/05/20 00:22:55;;;;;;;21.98;7.05;;;13.90;99.90;;;;;;5092264;28;20168;-58
2023/05/20 00:25:21;;;;;;;29.52;8.27;;;;;;;;;;5092075;28;20241;-57
2023/05/20 00:27:47;;;;;;;27.63;8.05;;;13.80;99.90;;;;;;5092048;28;20175;-56
2023/05/20 00:30:12;;;;;;;34.72;7.90;;;13.80;99.90;;;;;;5091907;28;20705;-58
2023/05/20 00:32:38;;;;;;;27.63;7.90;;;13.90;99.90;;;;;;5091991;28;20339;-58
2023/05/20 00:35:05;;;;;;;29.70;7.07;;;13.80;99.90;;;;;;5091938;28;20272;-58
2023/05/20 00:37:30;;;;;;;28.70;8.35;;;13.80;99.90;;;;;;5091692;28;20215;-58
2023/05/20 00:39:56;;;;;;;25.17;6.82;;;13.80;99.90;;;;;;5091924;28;20186;-58
2023/05/20 00:42:23;;;;;;;33.00;7.53;;;13.80;99.90;;;;;;5091791;28;20164;-58
2023/05/20 00:44:48;;;;;;;25.27;7.35;;;13.70;99.90;;;;;;5090064;28;20233;-57
2023/05/20 00:47:20;;;;;;;25.65;8.73;;;13.70;99.90;;;;;;5091947;28;20164;-57
2023/05/20 00:49:47;;;;;;;30.92;7.70;;;13.60;99.90;;;;;;5083074;28;20186;-57
2023/05/20 00:52:14;;;;;;;24.85;7.90;;;13.70;99.90;;;;;;5071510;28;20172;-57
2023/05/20 00:54:40;;;;;;;28.10;8.48;;;13.60;99.90;;;;;;5053251;28;20210;-58
2023/05/20 00:57:06;;;;;;;26.25;8.55;;;13.60;99.90;;;;;;5076296;28;20168;-57
2023/05/20 00:59:36;;;;;;;24.35;7.40;;;13.50;99.90;;;;;;5091821;28;20221;-57
2023/05/20 01:02:05;;;;;;;22.33;7.82;;;13.50;99.90;;;;;;5091405;28;20179;-57
2023/05/20 01:04:32;;;;;;;24.40;7.75;;;13.50;99.90;;;;;;5090599;28;20232;-58
2023/05/20 01:06:59;;;;;;;30.77;8.73;;;13.50;99.90;;;;;;5091336;28;20175;-58
2023/05/20 01:09:25;;;;;;;28.65;8.50;;;13.40;99.90;;;;;;5091344;28;20165;-58
2023/05/20 01:12:02;;;;;;;26.90;8.48;;;13.40;99.90;;;;;;5091617;28;20529;-58
2023/05/20 01:14:31;;;;;;;28.65;8.98;;;13.50;99.90;;;;;;5090957;28;20678;-58
2023/05/20 01:17:01;;;;;;;27.33;8.82;;;13.50;99.90;;;;;;5087303;28;20176;-58
2023/05/20 01:19:42;;;;;;;32.22;9.35;;;13.50;99.90;;;;;;5093929;28;20210;-57
2023/05/20 01:22:12;;;;;;;24.88;8.68;;;13.50;99.90;;;;;;5086225;28;20183;-57
2023/05/20 01:24:47;;;;;;;31.42;9.02;;;13.40;99.90;;;;;;5071112;28;20654;-58
2023/05/20 01:27:13;;;;;;;31.13;9.45;;;13.40;99.90;;;;;;5078354;28;20644;-57
2023/05/20 01:29:41;;;;;;;28.40;9.30;;;13.30;99.90;;;;;;5090924;28;20262;-57
2023/05/20 01:32:10;;;;;;;28.40;8.68;;;13.30;99.90;;;;;;5090954;28;20168;-58
2023/05/20 01:34:38;;;;;;;27.30;8.57;;;13.30;99.90;;;;;;5072902;28;20667;-57
2023/05/20 01:37:05;;;;;;;25.45;8.63;;;13.20;99.90;;;;;;5090944;28;20216;-57
2023/05/20 01:39:34;;;;;;;30.27;8.57;;;13.10;99.90;;;;;;5091082;28;20218;-57
2023/05/20 01:42:01;;;;;;;24.15;7.45;;;13.00;99.90;;;;;;5090939;28;20163;-57
2023/05/20 01:44:27;;;;;;;24.80;7.82;;;13.00;99.90;;;;;;5090891;28;20369;-58
2023/05/20 01:46:53;;;;;;;20.92;7.93;;;12.90;99.90;;;;;;5090838;28;20175;-58
2023/05/20 01:49:18;;;;;;;20.58;7.65;;;12.90;99.90;;;;;;5090859;28;20164;-58
2023/05/20 01:51:44;;;;;;;20.35;7.13;;;12.80;99.90;;;;;;5090821;28;20220;-57
2023/05/20 01:54:09;;;;;;;21.33;7.07;;;12.70;99.90;;;;;;5090861;28;20661;-57
2023/05/20 01:56:35;;;;;;;17.10;6.07;;;12.50;99.90;;;;;;5090657;28;20681;-57
2023/05/20 01:59:01;;;;;;;16.27;6.13;;;12.60;99.90;;;;;;5090744;28;20210;-58
2023/05/20 02:01:26;;;;;;;18.67;5.60;;;12.50;99.90;;;;;;5090763;28;20275;-58
2023/05/20 02:03:52;;;;;;;13.10;5.30;;;12.50;99.90;;;;;;5091242;28;20168;-58
2023/05/20 02:06:18;;;;;;;13.87;5.70;;;12.50;99.90;;;;;;5090693;28;20171;-58
2023/05/20 02:08:43;;;;;;;12.73;5.40;;;12.50;99.90;;;;;;5090768;28;20177;-58
2023/05/20 02:11:09;;;;;;;18.50;5.60;;;;;;;;;;5090667;28;20175;-58
2023/05/20 02:13:35;;;;;;;12.82;4.65;;;12.20;99.90;;;;;;5090613;28;20168;-58
2023/05/20 02:16:00;;;;;;;14.37;4.87;;;12.30;99.90;;;;;;5091497;28;20207;-58
2023/05/20 02:18:26;;;;;;;18.07;5.30;;;12.20;99.90;;;;;;5094682;28;20660;-58
2023/05/20 02:20:52;;;;;;;13.27;5.45;;;12.20;99.90;;;;;;5092562;28;20175;-58
2023/05/20 02:23:17;;;;;;;9.13;4.90;;;12.20;99.90;;;;;;5094567;28;20555;-59
2023/05/20 02:25:44;;;;;;;11.85;5.10;;;12.10;99.90;;;;;;5094556;28;20164;-59
2023/05/20 02:28:10;;;;;;;8.33;4.73;;;12.00;99.90;;;;;;5094364;28;20304;-57
2023/05/20 02:30:38;;;;;;;10.97;4.50;;;12.00;5.90;;;;;;5092565;28;20188;-57
2023/05/20 02:33:05;;;;;;;12.80;4.90;;;12.00;1.00;;;;;;5082660;28;20267;-58
2023/05/20 02:35:31;;;;;;;9.13;4.60;;;12.00;1.00;;;;;;5094354;28;20562;-57
2023/05/20 02:37:57;;;;;;;11.97;4.70;;;11.90;1.00;;;;;;5093969;28;20280;-58
2023/05/20 02:40:22;;;;;;;14.00;5.03;;;12.30;15.30;;;;;;5094189;28;20175;-58
2023/05/20 02:42:48;;;;;;;11.57;5.67;;;11.90;1.00;;;;;;5094165;28;20204;-58
2023/05/20 02:45:13;;;;;;;12.40;4.67;;;11.90;1.00;;;;;;5092888;28;20244;-58
2023/05/20 02:47:39;;;;;;;11.30;5.10;;;11.90;1.00;;;;;;5073887;28;20640;-58
2023/05/20 02:50:05;;;;;;;13.07;5.30;;;11.80;1.00;;;;;;5073724;28;20173;-58
2023/05/20 02:52:31;;;;;;;16.90;5.10;;;11.70;13.50;;;;;;5073747;28;20247;-58
2023/05/20 02:54:57;;;;;;;12.53;5.37;;;11.70;87.30;;;;;;5073541;28;20345;-58
2023/05/20 02:57:23;;;;;;;9.20;4.73;;;11.70;94.00;;;;;;5087384;28;20308;-58
2023/05/20 02:59:48;;;;;;;14.03;5.20;;;11.60;82.10;;;;;;5076035;28;20485;-58
2023/05/20 03:02:14;;;;;;;12.07;5.03;;;11.70;99.90;;;;;;5088085;28;20788;-58
2023/05/20 03:04:40;;;;;;;11.63;5.10;;;11.60;99.90;;;;;;5085685;28;20634;-58
2023/05/20 03:07:09;;;;;;;12.17;5.00;;;11.60;99.90;;;;;;5076235;28;20168;-58
2023/05/20 03:09:34;;;;;;;14.40;5.33;;;11.50;99.90;;;;;;5093572;28;20289;-58
2023/05/20 03:12:00;;;;;;;11.73;5.07;;;11.40;99.90;;;;;;5079080;28;20554;-58
2023/05/20 03:14:26;;;;;;;12.60;5.00;;;11.40;99.90;;;;;;5073583;28;20230;-58
2023/05/20 03:16:54;;;;;;;15.03;5.40;;;11.30;99.90;;;;;;5073732;28;20603;-58
2023/05/20 03:19:20;;;;;;;13.47;5.07;;;11.40;99.90;;;;;;5073256;28;20554;-58
2023/05/20 03:21:46;;;;;;;16.80;5.30;;;11.30;99.90;;;;;;5073420;28;20180;-58
2023/05/20 03:24:12;;;;;;;14.70;5.23;;;11.30;99.90;;;;;;5073237;28;20527;-58
2023/05/20 03:26:41;;;;;;;12.67;5.60;;;11.40;99.90;;;;;;5073392;28;20191;-58
2023/05/20 03:29:08;;;;;;;12.20;5.20;;;11.30;99.90;;;;;;5072025;28;20203;-58
2023/05/20 03:31:34;;;;;;;14.40;4.90;;;11.20;99.90;;;;;;5088692;28;20180;-58
2023/05/20 03:34:00;;;;;;;18.23;5.17;;;11.40;99.90;;;;;;5080806;28;20183;-59
2023/05/20 03:36:25;;;;;;;10.50;4.90;;;11.20;99.90;;;;;;5067753;28;20726;-58
2023/05/20 03:38:51;;;;;;;14.13;5.07;;;11.20;99.90;;;;;;5093002;28;20318;-59
2023/05/20 03:41:18;;;;;;;14.73;5.33;;;11.10;99.90;;;;;;5074871;28;20660;-59
2023/05/20 03:43:43;;;;;;;11.63;4.93;;;11.30;99.90;;;;;;5081222;28;20230;-59
2023/05/20 03:46:09;;;;;;;11.03;5.07;;;10.90;99.90;;;;;;5072708;28;20194;-59
2023/05/20 03:48:35;;;;;;;11.57;4.57;;;11.00;99.90;;;;;;5075339;28;20173;-59
2023/05/20 03:51:01;;;;;;;13.17;5.10;;;10.80;99.90;;;;;;5081317;28;20211;-59
2023/05/20 03:53:26;;;;;;;13.50;4.83;;;11.20;99.90;;;;;;5092821;28;20171;-59
2023/05/20 03:55:52;;;;;;;13.13;5.40;;;11.10;99.90;;;;;;5092500;28;20208;-60
2023/05/20 03:58:19;;;;;;;10.53;5.00;;;11.00;99.90;;;;;;5092696;28;20602;-60
2023/05/20 04:00:46;;;;;;;14.60;5.10;;;10.80;99.90;;;;;;5074279;28;20179;-59
2023/05/20 04:03:11;;;;;;;12.40;5.17;;;10.90;99.90;;;;;;5092485;28;20641;-59
2023/05/20 04:05:37;;;;;;;16.10;5.80;;;10.90;99.90;;;;;;5092697;28;20308;-57
2023/05/20 04:08:03;;;;;;;9.93;5.43;;;10.90;99.90;;;;;;5092507;28;20670;-56
2023/05/20 04:10:31;;;;;;;16.07;6.77;;;10.80;99.90;;;;;;5092513;28;20176;-57
2023/05/20 04:12:57;;;;;;;16.33;6.27;;;10.80;99.90;;;;;;5092588;28;20330;-57
2023/05/20 04:15:23;;;;;;;14.67;6.53;;;10.80;99.90;;;;;;5092314;28;20235;-58
2023/05/20 04:17:51;;;;;;;17.10;6.90;;;10.70;99.90;;;;;;5092387;28;20723;-59
2023/05/20 04:20:17;;;;;;;18.77;7.17;;;10.70;99.90;;;;;;5091133;28;20179;-59
2023/05/20 04:22:43;;;;;;;15.13;6.90;;;10.80;99.90;;;;;;5092319;28;20164;-58
2023/05/20 04:25:09;;;;;;;15.97;7.57;;;10.70;99.90;;;;;;5092236;28;20172;-58
2023/05/20 04:27:36;;;;;;;17.73;7.30;;;10.70;99.90;;;;;;5092230;28;20644;-58
2023/05/20 04:30:03;;;;;;;17.30;7.20;;;10.80;99.90;;;;;;5092194;28;20640;-59
2023/05/20 04:32:29;;;;;;;15.03;7.43;;;10.70;99.90;;;;;;5092215;28;20164;-59
2023/05/20 04:34:55;;;;;;;19.47;7.57;;;10.70;99.90;;;;;;5092159;28;20739;-58
2023/05/20 04:37:21;;;;;;;16.80;8.30;;;10.70;99.90;;;;;;5091830;28;20227;-57
2023/05/20 04:39:48;;;;;;;15.63;7.43;;;10.60;99.90;;;;;;5091647;28;20636;-58
2023/05/20 04:42:17;;;;;;;18.83;7.63;;;10.70;99.90;;;;;;5092124;28;20180;-58
2023/05/20 04:44:44;;;;;;;15.80;7.77;;;10.70;99.90;;;;;;5078111;28;20180;-58
2023/05/20 04:47:10;;;;;;;19.80;8.57;;;10.60;99.90;;;;;;5091810;28;20537;-57
2023/05/20 04:49:37;;;;;;;16.47;7.83;;;10.60;99.90;;;;;;5073517;28;20168;-58
2023/05/20 04:52:03;;;;;;;20.90;9.13;;;10.70;99.90;;;;;;5091768;28;20264;-58
2023/05/20 04:54:29;;;;;;;16.00;8.13;;;10.60;99.90;;;;;;5091436;28;20184;-58
2023/05/20 04:56:55;;;;;;;15.33;8.47;;;10.90;99.90;;;;;;5091842;28;20207;-59
2023/05/20 04:59:21;;;;;;;13.57;7.53;;;10.50;99.90;;;;;;5091498;28;20160;-58
2023/05/20 05:01:47;;;;;;;21.23;8.40;;;10.60;99.90;;;;;;5091606;28;20183;-58
2023/05/20 05:04:12;;;;;;;16.57;8.40;;;10.60;99.90;;;;;;5091523;28;20579;-58
2023/05/20 05:06:38;;;;;;;19.73;9.03;;;10.60;99.90;;;;;;5091459;28;20644;-58
2023/05/20 05:09:04;;;;;;;18.03;9.17;;;10.60;99.90;;;;;;5091427;28;20644;-58
2023/05/20 05:11:30;;;;;;;19.13;9.10;;;10.60;99.90;;;;;;5090112;28;20591;-59
2023/05/20 05:13:55;;;;;;;16.77;9.13;;;10.50;99.90;;;;;;5091395;28;20640;-59
2023/05/20 05:16:22;;;;;;;17.90;8.50;;;;;;;;;;5106955;28;20207;-59
2023/05/20 05:18:47;;;;;;;19.20;8.63;;;10.60;99.90;;;;;;5071302;28;20172;-59
2023/05/20 05:21:13;;;;;;;14.13;8.07;;;10.60;99.90;;;;;;5070969;28;20707;-59
2023/05/20 05:23:38;;;;;;;16.57;8.57;;;10.80;99.90;;;;;;5052855;28;20180;-60
2023/05/20 05:26:04;;;;;;;19.73;7.53;;;10.80;99.90;;;;;;5071001;28;20176;-60
2023/05/20 05:28:30;;;;;;;17.27;8.33;;;10.80;99.90;;;;;;5070904;28;20176;-59
2023/05/20 05:30:55;;;;;;;16.90;7.93;;;10.80;99.90;;;;;;5070716;28;20176;-59
2023/05/20 05:33:21;;;;;;;17.53;8.17;;;10.90;99.90;;;;;;5070788;28;20583;-59
2023/05/20 05:35:47;;;;;;;14.00;7.73;;;10.90;99.90;;;;;;5070746;28;20293;-61
2023/05/20 05:38:13;;;;;;;17.53;8.23;;;10.90;99.90;;;;;;5070483;28;20213;-59
2023/05/20 05:40:39;;;;;;;16.67;7.73;;;;;;;;;;5052880;28;20172;-59
2023/05/20 05:43:04;;;;;;;19.50;8.47;;;11.00;99.90;;;;;;5072661;28;20183;-59
2023/05/20 05:45:30;;;;;;;16.57;7.70;;;10.90;99.90;;;;;;5090994;28;20172;-59
2023/05/20 05:47:56;;;;;;;14.67;7.60;;;10.90;99.90;;;;;;5090985;28;20626;-58
2023/05/20 05:50:21;;;;;;;16.77;7.67;;;11.00;99.90;;;;;;5090443;28;20171;-58
2023/05/20 05:52:47;;;;;;;17.03;7.83;;;10.90;99.90;;;;;;5090740;28;20168;-58
2023/05/20 05:55:12;;;;;;;15.00;7.20;;;11.10;99.90;;;;;;5085341;28;20204;-58
2023/05/20 05:57:38;;;;;;;22.47;7.63;;;11.00;99.90;;;;;;5074120;28;20549;-58
2023/05/20 06:00:04;;;;;;;19.33;7.30;;;11.00;99.90;;;;;;5073033;28;20230;-58
2023/05/20 06:02:34;;;;;;;19.57;8.00;;;11.10;99.90;;;;;;5079092;28;20220;-61
2023/05/20 06:05:03;;;;;;;21.87;8.07;;;11.10;99.90;;;;;;5090709;28;20689;-58
2023/05/20 06:07:29;;;;;;;17.93;7.10;;;11.10;99.90;;;;;;5090663;28;20704;-57
2023/05/20 06:09:55;;;;;;;16.93;7.27;;;11.20;99.90;;;;;;5090631;28;20164;-58
2023/05/20 06:12:21;;;;;;;16.47;7.63;;;;;;;;;;5090868;28;20186;-59
2023/05/20 06:14:47;;;;;;;19.00;7.70;;;11.20;99.90;;;;;;5090514;28;20180;-59
2023/05/20 06:17:13;;;;;;;18.57;7.47;;;11.20;99.90;;;;;;5090677;28;20217;-57
2023/05/20 06:19:38;;;;;;;16.97;7.93;;;11.30;99.90;;;;;;5090458;28;20172;-58
2023/05/20 06:22:04;;;;;;;19.90;7.73;;;11.00;99.90;;;;;;5090466;28;20175;-58
2023/05/20 06:24:30;;;;;;;19.33;7.80;;;11.40;99.90;;;;;;5090545;28;20176;-67
2023/05/20 06:26:55;;;;;;;23.93;7.17;;;11.60;99.90;;;;;;5090610;28;20172;-60
2023/05/20 06:29:23;;;;;;;15.87;7.33;;;11.60;99.90;;;;;;5090560;28;20225;-65
2023/05/20 06:31:48;;;;;;;15.43;7.20;;;11.60;99.90;;;;;;5087384;28;20172;-60
2023/05/20 06:34:14;;;;;;;19.67;7.37;;;11.50;99.90;;;;;;5084653;28;20264;-63
2023/05/20 06:36:40;;;;;;;19.33;7.23;;;11.50;99.90;;;;;;5074058;28;20246;-61
2023/05/20 06:39:11;;;;;;;20.40;7.97;;;11.50;99.90;;;;;;5071800;28;20642;-62
2023/05/20 06:41:37;;;;;;;18.37;7.90;;;11.70;99.90;;;;;;5089958;28;20187;-61
2023/05/20 06:44:03;;;;;;;18.97;7.97;;;11.60;99.90;;;;;;5078716;28;20275;-61
2023/05/20 06:46:28;;;;;;;15.93;7.40;;;11.70;99.90;;;;;;5090287;28;20664;-61
2023/05/20 06:48:54;;;;;;;18.60;7.90;;;11.80;99.90;;;;;;5090100;28;20656;-61
2023/05/20 06:51:20;;;;;;;20.80;7.60;;;11.80;99.90;;;;;;5088050;28;20270;-61
2023/05/20 06:53:45;;;;;;;17.40;7.43;;;11.90;99.90;;;;;;5090264;28;20187;-61
2023/05/20 06:56:11;;;;;;;20.70;7.57;;;11.90;99.90;;;;;;5071852;28;20208;-61
2023/05/20 06:58:36;;;;;;;22.13;7.97;;;12.00;99.90;;;;;;5088564;28;20172;-62
2023/05/20 07:01:02;;;;;;;13.20;6.93;;;12.10;99.90;;;;;;5084629;28;20188;-61
2023/05/20 07:03:28;;;;;;;20.00;7.23;;;12.00;99.90;;;;;;5071337;28;20629;-62
2023/05/20 07:05:53;;;;;;;18.47;6.87;;;12.10;99.90;;;;;;5073446;28;20525;-62
2023/05/20 07:08:19;;;;;;;14.43;6.97;;;12.10;99.90;;;;;;5073556;28;20613;-62
2023/05/20 07:10:45;;;;;;;18.10;7.50;;;12.20;99.90;;;;;;5073515;28;20550;-62
2023/05/20 07:13:11;;;;;;;21.37;7.17;;;12.20;99.90;;;;;;5073426;28;20197;-60
2023/05/20 07:15:36;;;;;;;16.97;7.43;;;12.30;99.90;;;;;;5077591;28;20208;-60
2023/05/20 07:18:02;;;;;;;14.57;7.17;;;12.30;99.90;;;;;;5088317;28;20229;-60
2023/05/20 07:20:28;;;;;;;13.30;7.17;;;12.60;78.80;;;;;;5092916;28;20172;-60
2023/05/20 07:22:53;;;;;;;20.97;6.63;;;12.40;5.00;;;;;;5073131;28;20176;-60
2023/05/20 07:25:19;;;;;;;16.73;6.93;;;12.60;1.00;;;;;;5090892;28;20648;-59
2023/05/20 07:27:45;;;;;;;19.55;7.60;;;12.60;1.00;;;;;;5093299;28;20164;-61
2023/05/20 07:30:10;;;;;;;15.20;7.37;;;12.60;1.00;;;;;;5085270;28;20176;-60
2023/05/20 07:32:36;;;;;;;19.43;7.37;;;12.70;1.00;;;;;;5089243;28;20608;-61
2023/05/20 07:35:02;;;;;;;12.93;6.23;;;12.80;1.00;;;;;;5092667;28;20218;-60
2023/05/20 07:37:27;;;;;;;14.48;6.18;;;12.80;1.00;;;;;;5085867;28;20727;-61
2023/05/20 07:39:53;;;;;;;15.33;6.80;;;13.00;99.90;;;;;;5076707;28;20660;-60
2023/05/20 07:42:18;;;;;;;14.32;5.50;;;13.00;99.90;;;;;;5092390;28;20176;-60
2023/05/20 07:44:44;;;;;;;11.25;5.18;;;13.00;8.60;;;;;;5092897;28;20176;-59
2023/05/20 07:47:09;;;;;;;10.53;5.80;;;13.10;1.00;;;;;;5092909;28;20707;-59
2023/05/20 07:49:35;;;;;;;14.87;5.73;;;13.30;1.00;;;;;;5092592;28;20184;-59
2023/05/20 07:52:01;;;;;;;16.10;5.70;;;13.30;99.90;;;;;;5092881;28;20176;-60
2023/05/20 07:54:26;;;;;;;16.95;6.18;;;13.40;1.00;;;;;;5086064;28;20528;-60
2023/05/20 07:56:52;;;;;;;14.68;6.13;;;13.60;1.00;;;;;;5072368;28;20707;-59
2023/05/20 07:59:17;;;;;;;13.38;5.82;;;13.60;1.00;;;;;;5072490;28;20184;-58
2023/05/20 08:01:43;;;;;;;13.57;5.40;;;14.10;1.00;;;;;;5085100;28;20182;-58
2023/05/20 08:04:09;;;;;;;14.70;5.28;;;13.90;99.90;;;;;;5092512;28;20168;-58
2023/05/20 08:06:35;;;;;;;13.77;5.43;;;;;;;;;;5091609;28;20523;-59
2023/05/20 08:09:02;;;;;;;15.43;5.47;;;13.90;99.90;;;;;;5072321;28;20173;-60
2023/05/20 08:11:28;;;;;;;12.88;4.78;;;13.90;1.00;;;;;;5072428;28;20540;-59
2023/05/20 08:13:54;;;;;;;10.27;4.70;;;14.10;1.00;;;;;;5089801;28;20183;-60
2023/05/20 08:16:20;;;;;;;13.98;5.15;;;14.10;1.00;;;;;;5090427;28;20226;-60
2023/05/20 08:18:46;;;;;;;11.02;4.30;;;14.50;1.00;;;;;;5087212;28;20180;-60
2023/05/20 08:21:12;;;;;;;10.95;4.55;;;14.40;1.00;;;;;;5076488;28;20542;-60
2023/05/20 08:23:38;;;;;;;15.65;5.15;;;14.60;1.00;;;;;;5091412;28;20187;-60
2023/05/20 08:26:04;;;;;;;13.93;5.35;;;14.80;1.00;;;;;;5073865;28;20708;-64
2023/05/20 08:28:30;;;;;;;10.60;5.82;;;15.00;1.00;;;;;;5091620;28;20582;-62
2023/05/20 08:30:56;;;;;;;13.40;5.97;;;15.10;11.80;;;;;;5091858;28;20663;-61
2023/05/20 08:33:22;;;;;;;16.77;5.60;;;15.30;1.00;;;;;;5091910;28;20644;-61
2023/05/20 08:35:48;;;;;;;12.45;5.97;;;15.70;99.90;;;;;;5091860;28;20226;-61
2023/05/20 08:38:14;;;;;;;18.10;6.10;;;16.40;99.90;;;;;;5091683;28;20222;-63
2023/05/20 08:40:40;;;;;;;13.90;5.60;;;17.00;1.00;;;;;;5090197;28;20183;-63
2023/05/20 08:43:05;;;;;;;11.55;5.20;;;17.50;1.00;;;;;;5073753;28;20168;-67
2023/05/20 08:45:32;;;;;;;10.48;5.63;;;18.30;1.00;;;;;;5091703;28;20660;-64
2023/05/20 08:47:59;;;;;;;13.30;5.22;;;18.40;1.00;;;;;;5091697;28;20195;-64
2023/05/20 08:50:24;;;;;;;9.55;5.60;;;18.70;99.90;;;;;;5091534;28;20171;-64
2023/05/20 08:52:50;;;;;;;10.38;5.00;;;19.10;99.90;;;;;;5085947;28;20176;-64
2023/05/20 08:55:41;;;;;;;11.27;5.10;;;19.10;1.00;;;;;;5089070;28;20221;-64
2023/05/20 08:58:07;;;;;;;10.57;5.63;;;19.10;1.00;;;;;;5071275;28;20208;-64
2023/05/20 09:00:33;;;;;;;10.00;6.20;;;19.00;1.00;;;;;;5083286;28;20254;-65
2023/05/20 09:02:59;;;;;;;12.27;6.13;;;19.00;99.90;;;;;;5089865;28;20263;-63
2023/05/20 09:05:26;;;;;;;13.52;5.32;;;18.60;99.90;;;;;;5091647;28;20175;-62
2023/05/20 09:07:52;;;;;;;10.02;6.03;;;18.90;99.90;;;;;;5089697;28;20651;-62
2023/05/20 09:10:19;;;;;;;13.75;5.97;;;18.80;1.00;;;;;;5088449;28;20182;-62
2023/05/20 09:12:44;;;;;;;11.18;5.32;;;19.00;48.10;;;;;;5088797;28;20160;-62
2023/05/20 09:15:10;;;;;;;11.05;5.30;;;19.00;1.00;;;;;;5085925;28;20203;-61
2023/05/20 09:17:36;;;;;;;11.68;5.35;;;19.30;1.00;;;;;;5091273;28;20195;-63
2023/05/20 09:20:12;;;;;;;13.73;5.72;;;19.00;1.00;;;;;;5105594;28;20168;-62
2023/05/20 09:22:38;;;;;;;12.50;5.43;;;19.40;1.00;;;;;;5070713;28;20178;-58
2023/05/20 09:25:05;;;;;;;16.20;5.97;;;19.30;1.00;;;;;;5080107;28;20184;-61
2023/05/20 09:27:31;;;;;;;13.88;5.22;;;;;;;;;;5089937;28;20171;-60
2023/05/20 09:29:57;;;;;;;12.88;5.50;;;19.70;1.00;;;;;;5088666;28;20656;-66
2023/05/20 09:32:25;;;;;;;10.50;4.97;;;;;;;;;;5070798;28;20218;-60
2023/05/20 09:34:51;;;;;;;9.88;4.22;;;20.00;99.90;;;;;;5081674;28;20214;-59
2023/05/20 09:37:20;;;;;;;10.70;5.22;;;20.20;1.00;;;;;;5088528;28;20236;-60
2023/05/20 09:39:58;;;;;;;13.05;5.32;;;20.30;99.90;;;;;;5088732;28;20176;-59
2023/05/20 09:42:41;;;;;;;12.13;4.68;;;20.50;22.90;;;;;;5086748;28;20168;-59
2023/05/20 09:45:10;;;;;;;10.57;4.63;;;20.20;99.90;;;;;;5070735;28;20247;-59
2023/05/20 09:47:38;;;;;;;9.85;4.40;;;20.30;1.00;;;;;;5085127;28;20176;-70
2023/05/20 09:50:07;;;;;;;13.02;4.75;;;20.40;1.00;;;;;;5090753;28;20175;-58
2023/05/20 09:52:36;;;;;;;10.55;4.60;;;20.60;99.90;;;;;;5090605;28;20168;-59
2023/05/20 09:55:04;;;;;;;10.40;4.85;;;20.00;99.90;;;;;;5070956;28;20207;-61
2023/05/20 09:57:34;;;;;;;7.40;4.60;;;20.80;1.00;;;;;;5054502;28;20190;-61
2023/05/20 10:00:03;;;;;;;12.13;4.22;;;21.10;1.00;;;;;;5071814;28;20656;-61
2023/05/20 10:02:29;;;;;;;9.05;4.20;;;21.40;22.70;;;;;;5070823;28;20255;-61
2023/05/20 10:04:58;;;;;;;11.25;4.55;;;21.40;1.00;;;;;;5080902;28;20241;-61
2023/05/20 10:07:54;;;;;;;10.50;4.28;;;20.90;1.00;;;;;;5085966;28;20172;-61
2023/05/20 10:10:49;;;;;;;8.48;4.32;;;20.90;1.00;;;;;;5066327;28;20203;-61
2023/05/20 10:13:27;;;;;;;8.65;3.97;;;21.20;45.30;;;;;;5069145;28;20181;-61
2023/05/20 10:16:17;;;;;;;7.47;3.58;;;21.30;1.00;;;;;;5074373;28;20200;-61
2023/05/20 10:18:52;;;;;;;11.18;4.28;;;21.80;1.00;;;;;;5088026;28;20297;-61
2023/05/20 10:21:23;;;;;;;8.68;4.13;;;21.70;1.00;;;;;;5090337;28;20171;-61
2023/05/20 10:23:50;;;;;;;10.77;3.67;;;21.60;1.00;;;;;;5090598;28;20195;-61
2023/05/20 10:26:16;;;;;;;11.85;3.80;;;21.80;99.90;;;;;;5071694;28;20635;-61
2023/05/20 10:28:43;;;;;;;10.90;3.72;;;22.10;99.90;;;;;;5052399;28;20172;-61
2023/05/20 10:31:22;;;;;;;7.40;3.90;;;22.20;99.90;;;;;;5070147;28;20252;-61
2023/05/20 10:33:48;;;;;;;9.23;3.47;;;22.60;1.00;;;;;;5052145;28;20284;-61
2023/05/20 10:36:29;;;;;;;6.53;4.05;;;22.60;99.90;;;;;;5051919;28;20638;-61
2023/05/20 10:38:56;;;;;;;8.27;4.15;;;22.70;99.90;;;;;;5094116;28;20269;-61
2023/05/20 10:41:27;;;;;;;8.70;3.80;;;22.80;99.90;;;;;;5109903;28;20218;-61
2023/05/20 10:44:00;;;;;;;13.07;4.13;;;23.10;99.90;;;;;;5094085;28;20533;-61
2023/05/20 10:46:26;;;;;;;8.18;3.83;;;;;;;;;;5093883;28;20175;-61
2023/05/20 10:48:51;;;;;;;12.32;3.78;;;22.60;69.00;;;;;;5094104;28;20167;-61
2023/05/20 10:51:17;;;;;;;7.10;3.78;;;22.60;99.90;;;;;;5093867;28;20179;-62
2023/05/20 10:53:45;;;;;;;7.82;3.92;;;23.20;99.90;;;;;;5093888;28;20170;-62
2023/05/20 10:56:23;;;;;;;8.45;3.83;;;23.30;99.90;;;;;;5094126;28;20208;-62
2023/05/20 10:58:50;;;;;;;13.10;3.95;;;23.10;99.90;;;;;;5093895;28;20217;-62
2023/05/20 11:01:17;;;;;;;11.95;3.97;;;23.30;70.30;;;;;;5093766;28;20652;-62
2023/05/20 11:03:47;;;;;;;8.05;3.38;;;23.70;45.20;;;;;;5093714;28;20171;-62
2023/05/20 11:06:14;;;;;;;9.38;3.70;;;23.20;20.50;;;;;;5093776;28;20240;-62
2023/05/20 11:08:40;;;;;;;8.82;3.50;;;23.60;1.00;;;;;;5109299;28;20688;-62
2023/05/20 11:11:06;;;;;;;7.35;4.05;;;23.60;1.40;;;;;;5092728;28;20176;-62
2023/05/20 11:13:32;;;;;;;10.95;4.18;;;23.50;1.00;;;;;;5086382;28;20169;-61
2023/05/20 11:16:00;;;;;;;12.18;3.88;;;23.90;23.10;;;;;;5091258;28;20219;-62
2023/05/20 11:18:29;;;;;;;8.85;3.40;;;23.90;1.00;;;;;;5073213;28;20207;-61
2023/05/20 11:20:55;;;;;;;8.65;3.78;;;23.80;1.00;;;;;;5069557;28;20519;-62
2023/05/20 11:23:22;;;;;;;10.07;3.40;;;24.10;1.00;;;;;;5100259;28;20172;-62
2023/05/20 11:25:52;;;;;;;9.98;3.70;;;24.10;1.00;;;;;;5092590;28;20175;-62
2023/05/20 11:28:22;;;;;;;9.25;3.90;;;24.70;1.00;;;;;;5093226;28;20175;-62
2023/05/20 11:30:49;;;;;;;10.40;3.75;;;24.90;1.00;;;;;;5093253;28;20202;-61
2023/05/20 11:33:16;;;;;;;8.48;3.38;;;25.80;1.00;;;;;;5093245;28;20164;-63
2023/05/20 11:35:46;;;;;;;9.25;3.58;;;25.70;1.00;;;;;;5092987;28;20700;-62
2023/05/20 11:38:21;;;;;;;8.48;3.88;;;26.10;1.00;;;;;;5415355;22;20192;-60
2023/05/20 11:40:54;;;;;;;9.38;3.85;;;26.00;1.00;;;;;;5096710;22;20318;-60
2023/05/20 11:43:21;;;;;;;9.35;3.95;;;26.10;1.00;;;;;;5092998;28;20172;-60
2023/05/20 11:45:55;;;;;;;9.35;2.95;;;26.40;1.00;;;;;;5093057;28;20313;-60
2023/05/20 11:48:21;;;;;;;7.05;3.70;;;27.40;1.00;;;;;;5074727;28;20167;-60
2023/05/20 11:50:47;;;;;;;10.18;3.90;;;26.70;1.00;;;;;;5092806;28;20172;-60
2023/05/20 11:53:21;;;;;;;8.13;3.33;;;26.30;1.00;;;;;;5092832;28;20199;-60
2023/05/20 11:56:05;;;;;;;9.07;3.97;;;26.80;1.00;;;;;;5092924;28;20215;-60
2023/05/20 11:58:31;;;;;;;13.23;3.97;;;26.60;1.00;;;;;;5074527;28;20172;-60
2023/05/20 12:00:57;;;;;;;8.82;3.17;;;26.80;1.00;;;;;;5092699;28;20256;-60
2023/05/20 12:03:23;;;;;;;7.88;3.38;;;26.90;1.00;;;;;;5092635;28;20172;-60
2023/05/20 12:05:50;;;;;;;7.70;3.38;;;27.10;1.00;;;;;;5092577;28;20172;-61
2023/05/20 12:08:16;;;;;;;11.48;3.60;;;27.50;1.00;;;;;;5092633;28;20160;-61
2023/05/20 12:10:43;;;;;;;8.45;3.33;;;27.30;1.00;;;;;;5092668;28;20190;-61
2023/05/20 12:13:11;;;;;;;8.63;4.22;;;28.10;1.00;;;;;;5074375;28;20210;-61
2023/05/20 12:15:37;;;;;;;9.35;3.97;;;27.00;1.00;;;;;;5092293;28;20265;-61
2023/05/20 12:18:03;;;;;;;7.78;3.88;;;28.00;1.00;;;;;;5092507;28;20176;-61
2023/05/20 12:20:29;;;;;;;9.00;3.38;;;27.30;1.00;;;;;;5092408;28;20172;-60
2023/05/20 12:22:56;;;;;;;11.40;4.38;;;27.00;1.00;;;;;;5092380;28;20172;-61
2023/05/20 12:25:22;;;;;;;8.95;4.32;;;26.50;1.00;;;;;;5092204;28;20670;-61
2023/05/20 12:27:49;;;;;;;9.95;4.25;;;26.60;1.00;;;;;;5092144;28;20666;-61
2023/05/20 12:30:24;;;;;;;12.52;4.20;;;27.90;1.00;;;;;;5091190;28;20255;-61
2023/05/20 12:32:50;;;;;;;10.40;3.78;;;27.80;1.00;;;;;;5091335;28;20186;-61
2023/05/20 12:35:21;;;;;;;9.98;4.30;;;27.80;1.00;;;;;;5091345;28;20233;-61
2023/05/20 12:37:47;;;;;;;10.50;3.58;;;28.50;1.00;;;;;;5091204;28;20168;-61
2023/05/20 12:40:12;;;;;;;14.90;4.85;;;28.40;1.00;;;;;;5091298;28;20223;-61
2023/05/20 12:42:39;;;;;;;10.15;3.67;;;26.40;99.90;;;;;;5073820;28;20167;-61
2023/05/20 12:45:06;;;;;;;9.02;3.35;;;25.40;99.90;;;;;;5091853;28;20172;-61